Time;durP1;ratioP1;P1;durP2;ratioP2;P2;SDS_P1;SDS_P2;PMS_P1;PMS_P2;Temp;Humidity;BMP_temperature;BMP_pressure;BME280_temperature;BME280_humidity;BME280_pressure;Samples;Min_cycle;Max_cycle;Signal;HPM_P1;HPM_P2
2020/12/18 00:00:18;;;;;;;10.70;2.90;;;7.10;88.30;;;;;;5091760;28;20775;-79
2020/12/18 00:02:44;;;;;;;7.77;2.83;;;7.10;88.50;;;;;;5092564;28;20403;-80
2020/12/18 00:05:09;;;;;;;8.15;2.80;;;7.20;88.20;;;;;;5091760;28;20475;-79
2020/12/18 00:07:35;;;;;;;12.00;2.85;;;7.30;88.30;;;;;;5091354;28;20370;-79
2020/12/18 00:10:00;;;;;;;9.95;2.50;;;7.40;87.90;;;;;;5091286;28;20378;-80
2020/12/18 00:12:26;;;;;;;7.77;2.80;;;7.40;87.80;;;;;;5091298;28;20439;-78
2020/12/18 00:14:52;;;;;;;7.27;2.27;;;7.50;87.50;;;;;;5091941;28;20374;-78
2020/12/18 00:17:17;;;;;;;8.03;2.80;;;7.60;87.00;;;;;;5091060;28;20381;-79
2020/12/18 00:19:43;;;;;;;5.43;2.30;;;7.50;87.10;;;;;;5091879;28;20448;-79
2020/12/18 00:22:08;;;;;;;7.73;2.77;;;7.50;87.20;;;;;;5107161;28;20402;-79
2020/12/18 00:24:34;;;;;;;9.05;2.50;;;7.50;87.30;;;;;;5091355;28;20370;-80
2020/12/18 00:26:59;;;;;;;7.95;2.63;;;7.40;87.40;;;;;;5091002;28;20831;-79
2020/12/18 00:29:25;;;;;;;9.75;2.50;;;7.50;87.20;;;;;;5090568;28;20567;-79
2020/12/18 00:31:51;;;;;;;7.75;2.42;;;7.40;87.50;;;;;;5091223;28;20386;-79
2020/12/18 00:34:16;;;;;;;7.80;2.72;;;7.50;87.40;;;;;;5091868;28;20466;-81
2020/12/18 00:36:42;;;;;;;6.40;2.85;;;7.50;87.30;;;;;;5090859;28;20377;-80
2020/12/18 00:39:07;;;;;;;5.37;2.30;;;7.60;87.00;;;;;;5090883;28;20385;-81
2020/12/18 00:41:33;;;;;;;8.83;2.47;;;7.60;86.90;;;;;;5106354;28;20546;-81
2020/12/18 00:43:59;;;;;;;8.63;2.90;;;7.50;87.00;;;;;;5106670;28;20909;-80
2020/12/18 00:46:25;;;;;;;8.80;2.60;;;7.50;87.20;;;;;;5090679;28;20393;-79
2020/12/18 00:48:51;;;;;;;7.43;2.67;;;7.50;87.30;;;;;;5090424;28;20385;-80
2020/12/18 00:51:17;;;;;;;6.93;2.30;;;7.50;87.20;;;;;;5091251;28;20465;-79
2020/12/18 00:53:43;;;;;;;6.90;3.10;;;7.60;87.00;;;;;;5091237;28;20369;-80
2020/12/18 00:56:09;;;;;;;7.38;2.33;;;7.60;86.90;;;;;;5106248;28;20862;-79
2020/12/18 00:58:35;;;;;;;5.38;2.50;;;7.60;87.00;;;;;;5090577;28;20366;-80
2020/12/18 01:01:02;;;;;;;15.35;2.80;;;7.50;87.30;;;;;;5091152;28;20429;-79
2020/12/18 01:03:27;;;;;;;8.68;2.65;;;7.60;86.80;;;;;;5072585;28;20386;-80
2020/12/18 01:05:53;;;;;;;7.47;2.08;;;7.60;86.80;;;;;;5091119;28;20453;-80
2020/12/18 01:08:19;;;;;;;8.00;2.65;;;7.50;86.90;;;;;;5105736;28;20378;-80
2020/12/18 01:10:44;;;;;;;9.40;2.70;;;7.50;87.20;;;;;;5090308;28;20453;-80
2020/12/18 01:13:10;;;;;;;7.27;2.30;;;7.30;87.50;;;;;;5090693;28;20381;-79
2020/12/18 01:15:35;;;;;;;7.43;2.30;;;7.50;87.20;;;;;;5090946;28;20518;-79
2020/12/18 01:18:01;;;;;;;8.77;2.50;;;7.40;87.40;;;;;;5090483;28;20822;-80
2020/12/18 01:20:26;;;;;;;11.37;2.73;;;7.40;87.40;;;;;;5072432;28;20386;-79
2020/12/18 01:22:52;;;;;;;5.30;2.47;;;7.40;87.30;;;;;;5090633;28;20523;-79
2020/12/18 01:25:18;;;;;;;7.68;2.30;;;7.40;87.30;;;;;;5090507;28;20374;-79
2020/12/18 01:27:43;;;;;;;8.13;2.23;;;7.30;87.40;;;;;;5090316;28;20451;-80
2020/12/18 01:30:09;;;;;;;6.85;2.53;;;7.20;87.70;;;;;;5090552;28;20388;-79
2020/12/18 01:32:34;;;;;;;9.80;2.63;;;7.30;87.40;;;;;;5090739;28;20384;-80
2020/12/18 01:35:00;;;;;;;5.93;2.22;;;7.20;87.50;;;;;;5090438;28;20706;-79
2020/12/18 01:37:26;;;;;;;6.93;2.15;;;7.20;87.70;;;;;;5089784;28;20374;-79
2020/12/18 01:39:51;;;;;;;10.83;2.70;;;7.20;87.60;;;;;;5090589;28;20449;-80
2020/12/18 01:42:17;;;;;;;8.63;2.37;;;7.20;87.50;;;;;;5090623;28;20408;-81
2020/12/18 01:44:42;;;;;;;8.30;2.20;;;7.20;87.60;;;;;;5090363;28;20378;-81
2020/12/18 01:47:29;;;;;;;4.57;2.30;;;7.10;87.70;;;;;;5089813;28;20374;-80
2020/12/18 01:49:56;;;;;;;7.80;2.33;;;7.10;87.60;;;;;;5090667;28;20464;-80
2020/12/18 01:52:23;;;;;;;8.60;2.27;;;7.00;87.90;;;;;;5072215;28;20858;-81
2020/12/18 01:54:53;;;;;;;13.65;3.05;;;7.10;87.80;;;;;;5105901;28;20378;-81
2020/12/18 01:57:21;;;;;;;8.50;2.30;;;7.00;88.00;;;;;;5089493;28;20873;-81
2020/12/18 01:59:47;;;;;;;9.13;2.30;;;6.90;88.00;;;;;;5090470;28;20397;-80
2020/12/18 02:02:16;;;;;;;7.32;2.22;;;6.90;88.10;;;;;;5090075;28;20406;-80
2020/12/18 02:04:43;;;;;;;9.50;2.03;;;6.90;88.20;;;;;;5090438;28;20374;-80
2020/12/18 02:07:11;;;;;;;7.38;2.40;;;6.90;87.90;;;;;;5089721;28;20378;-81
2020/12/18 02:09:38;;;;;;;5.13;2.15;;;7.00;87.60;;;;;;5090258;28;20887;-80
2020/12/18 02:12:04;;;;;;;8.07;2.53;;;7.10;87.20;;;;;;5090325;28;20752;-80
2020/12/18 02:14:30;;;;;;;9.80;2.40;;;7.00;87.40;;;;;;5090313;28;20419;-80
2020/12/18 02:16:56;;;;;;;8.82;1.90;;;7.10;87.40;;;;;;5104844;28;20386;-80
2020/12/18 02:19:26;;;;;;;5.75;1.75;;;7.10;87.40;;;;;;5090284;28;20385;-81
2020/12/18 02:21:52;;;;;;;10.27;2.28;;;7.10;87.20;;;;;;5089891;28;20413;-81
2020/12/18 02:24:27;;;;;;;6.78;1.85;;;6.90;87.50;;;;;;5108294;28;20390;-81
2020/12/18 02:26:54;;;;;;;5.27;1.77;;;6.80;88.00;;;;;;5093751;28;20450;-81
2020/12/18 02:29:20;;;;;;;6.93;2.05;;;6.90;87.70;;;;;;5075662;28;20381;-81
2020/12/18 02:31:50;;;;;;;9.18;2.17;;;6.90;87.60;;;;;;5093838;28;20382;-80
2020/12/18 02:34:23;;;;;;;7.38;2.22;;;6.90;87.50;;;;;;5093912;28;20370;-81
2020/12/18 02:36:49;;;;;;;4.55;1.83;;;7.00;87.20;;;;;;5093583;28;20384;-80
2020/12/18 02:39:15;;;;;;;12.37;2.20;;;6.90;87.50;;;;;;5093548;28;20378;-80
2020/12/18 02:41:40;;;;;;;6.90;1.93;;;6.90;87.50;;;;;;5093751;28;20410;-80
2020/12/18 02:44:06;;;;;;;10.23;2.13;;;6.90;87.70;;;;;;5093676;28;20600;-81
2020/12/18 02:46:31;;;;;;;7.93;1.80;;;6.80;87.80;;;;;;5093652;28;20370;-80
2020/12/18 02:48:57;;;;;;;6.55;2.03;;;6.80;87.80;;;;;;5093492;28;20370;-79
2020/12/18 02:51:22;;;;;;;8.82;2.30;;;6.80;87.70;;;;;;5093411;28;20382;-79
2020/12/18 02:53:48;;;;;;;7.25;2.00;;;6.80;87.80;;;;;;5093807;28;20378;-79
2020/12/18 02:56:22;;;;;;;4.70;1.50;;;6.60;88.10;;;;;;5093547;28;20516;-79
2020/12/18 02:58:47;;;;;;;6.68;2.20;;;6.70;88.00;;;;;;5109239;28;20377;-79
2020/12/18 03:01:13;;;;;;;10.63;2.35;;;6.50;88.50;;;;;;5109128;28;20402;-79
2020/12/18 03:03:39;;;;;;;5.50;1.88;;;6.70;88.20;;;;;;5093799;28;20371;-79
2020/12/18 03:06:04;;;;;;;6.28;1.92;;;6.50;88.30;;;;;;5093760;28;20393;-79
2020/12/18 03:08:30;;;;;;;5.13;1.97;;;6.50;88.70;;;;;;5093037;28;20416;-79
2020/12/18 03:10:55;;;;;;;7.40;2.23;;;6.60;88.30;;;;;;5093398;28;20407;-79
2020/12/18 03:13:21;;;;;;;9.27;2.07;;;6.70;88.00;;;;;;5109002;28;20386;-79
2020/12/18 03:15:46;;;;;;;6.33;1.90;;;6.60;88.10;;;;;;5074876;28;20389;-79
2020/12/18 03:18:12;;;;;;;5.17;1.57;;;6.60;88.10;;;;;;5092780;28;20841;-79
2020/12/18 03:20:37;;;;;;;6.77;1.80;;;6.60;88.20;;;;;;5093459;28;20838;-79
2020/12/18 03:23:03;;;;;;;10.40;2.27;;;6.50;88.60;;;;;;5092795;28;20834;-79
2020/12/18 03:25:29;;;;;;;7.60;1.88;;;6.40;88.70;;;;;;5074955;28;20374;-79
2020/12/18 03:27:54;;;;;;;6.82;1.98;;;6.30;88.90;;;;;;5092433;28;20424;-80
2020/12/18 03:30:20;;;;;;;7.70;1.90;;;6.40;88.70;;;;;;5093289;28;20399;-78
2020/12/18 03:32:45;;;;;;;7.40;1.90;;;6.40;88.70;;;;;;5092612;28;20409;-81
2020/12/18 03:35:11;;;;;;;5.00;1.75;;;6.40;88.60;;;;;;5092273;28;20370;-81
2020/12/18 03:37:36;;;;;;;7.55;1.83;;;6.40;88.40;;;;;;5092062;28;20370;-81
2020/12/18 03:40:03;;;;;;;6.70;1.67;;;6.50;88.10;;;;;;5092609;28;20378;-80
2020/12/18 03:42:28;;;;;;;11.15;1.98;;;6.50;88.40;;;;;;5092155;28;20750;-81
2020/12/18 03:44:54;;;;;;;7.00;1.93;;;6.60;88.10;;;;;;5092737;28;20372;-82
2020/12/18 03:47:20;;;;;;;6.40;2.03;;;6.60;88.00;;;;;;5091579;28;20757;-82
2020/12/18 03:49:45;;;;;;;10.27;1.88;;;6.50;88.20;;;;;;5074180;28;20382;-82
2020/12/18 03:52:11;;;;;;;10.00;1.83;;;6.40;88.40;;;;;;5092466;28;20857;-82
2020/12/18 03:54:36;;;;;;;10.10;1.90;;;6.40;88.70;;;;;;5092162;28;20834;-82
2020/12/18 03:57:02;;;;;;;7.00;1.97;;;6.40;88.60;;;;;;5092268;28;20802;-82
2020/12/18 03:59:28;;;;;;;6.83;1.90;;;6.40;88.70;;;;;;5092472;28;20416;-81
2020/12/18 04:01:54;;;;;;;6.10;2.10;;;6.30;88.90;;;;;;5092183;28;20493;-81
2020/12/18 04:04:22;;;;;;;7.87;2.27;;;6.40;88.80;;;;;;5091720;28;20465;-81
2020/12/18 04:06:48;;;;;;;7.32;2.22;;;6.30;88.90;;;;;;5091853;28;20370;-82
2020/12/18 04:09:13;;;;;;;5.87;2.00;;;6.40;88.80;;;;;;5091933;28;20378;-82
2020/12/18 04:11:41;;;;;;;9.43;2.93;;;6.40;88.90;;;;;;5092481;28;20382;-81
2020/12/18 04:14:07;;;;;;;5.53;1.88;;;6.40;88.80;;;;;;5091708;28;20370;-81
2020/12/18 04:16:33;;;;;;;6.43;2.03;;;6.40;88.90;;;;;;5091746;28;20379;-81
2020/12/18 04:18:59;;;;;;;8.67;2.47;;;6.30;89.10;;;;;;5092103;28;20381;-81
2020/12/18 04:21:24;;;;;;;8.40;2.27;;;6.40;89.20;;;;;;5091274;28;20734;-81
2020/12/18 04:23:50;;;;;;;8.57;2.37;;;6.40;89.10;;;;;;5091895;28;20378;-82
2020/12/18 04:26:16;;;;;;;9.37;2.30;;;6.30;89.20;;;;;;5107246;28;20417;-84
2020/12/18 04:28:41;;;;;;;6.03;2.37;;;6.30;89.20;;;;;;5091454;28;20382;-82
2020/12/18 04:31:07;;;;;;;7.30;2.33;;;6.30;89.20;;;;;;5091398;28;20397;-83
2020/12/18 04:33:32;;;;;;;9.77;2.30;;;6.30;89.40;;;;;;5107454;28;20469;-83
2020/12/18 04:35:58;;;;;;;12.60;2.88;;;6.40;89.30;;;;;;5107007;28;20404;-84
2020/12/18 04:38:23;;;;;;;6.38;2.35;;;6.40;89.10;;;;;;5091085;28;20839;-84
2020/12/18 04:40:50;;;;;;;12.73;2.40;;;6.40;89.00;;;;;;5072771;28;20409;-83
2020/12/18 04:43:16;;;;;;;7.15;2.17;;;6.40;89.10;;;;;;5091510;28;20377;-83
2020/12/18 04:45:42;;;;;;;6.53;2.10;;;6.40;89.10;;;;;;5106257;28;20397;-84
2020/12/18 04:48:08;;;;;;;8.15;2.30;;;6.30;89.20;;;;;;5072539;28;20741;-82
2020/12/18 04:50:35;;;;;;;10.38;2.67;;;6.30;89.50;;;;;;5074082;28;20750;-84
2020/12/18 04:53:01;;;;;;;7.20;2.33;;;6.40;89.10;;;;;;5090918;28;20386;-83
2020/12/18 04:55:28;;;;;;;8.38;2.58;;;6.40;89.20;;;;;;5091363;28;20378;-84
2020/12/18 04:57:54;;;;;;;9.82;2.50;;;6.30;89.20;;;;;;5090687;28;20374;-84
2020/12/18 05:00:20;;;;;;;8.70;2.58;;;6.40;89.10;;;;;;5091255;28;20397;-84
2020/12/18 05:02:46;;;;;;;6.05;2.15;;;6.40;89.10;;;;;;5072821;28;20402;-84
2020/12/18 05:05:12;;;;;;;6.95;2.13;;;6.30;89.20;;;;;;5107078;28;20815;-84
2020/12/18 05:07:38;;;;;;;8.40;2.17;;;6.30;89.20;;;;;;5090447;28;20374;-83
2020/12/18 05:10:07;;;;;;;7.77;2.20;;;6.30;89.20;;;;;;5090895;28;20408;-81
2020/12/18 05:12:34;;;;;;;6.97;2.10;;;6.40;88.80;;;;;;5090576;28;20416;-82
2020/12/18 05:15:00;;;;;;;6.93;2.28;;;6.30;89.10;;;;;;5090998;28;20382;-81
2020/12/18 05:17:27;;;;;;;6.10;2.17;;;6.30;89.20;;;;;;5105995;28;20385;-83
2020/12/18 05:19:53;;;;;;;5.47;2.47;;;6.40;89.10;;;;;;5072583;28;20729;-83
2020/12/18 05:22:23;;;;;;;10.90;2.53;;;6.30;89.00;;;;;;5090762;28;20406;-83
2020/12/18 05:24:50;;;;;;;7.82;2.17;;;6.30;89.10;;;;;;5090571;28;20461;-83
2020/12/18 05:27:16;;;;;;;8.48;2.47;;;6.30;89.40;;;;;;5106028;28;20373;-83
2020/12/18 05:29:42;;;;;;;5.07;2.15;;;6.20;89.50;;;;;;5106205;28;20382;-84
2020/12/18 05:32:12;;;;;;;6.85;2.28;;;6.10;89.90;;;;;;5090770;28;20377;-83
2020/12/18 05:34:43;;;;;;;8.05;2.05;;;6.20;89.60;;;;;;5090798;28;20363;-83
2020/12/18 05:37:14;;;;;;;9.02;2.30;;;6.10;89.60;;;;;;5072113;28;20382;-85
2020/12/18 05:39:40;;;;;;;6.60;2.28;;;6.10;89.70;;;;;;5090528;28;20416;-83
2020/12/18 05:42:07;;;;;;;7.10;2.10;;;6.10;89.80;;;;;;5090693;28;20409;-83
2020/12/18 05:44:33;;;;;;;8.63;2.50;;;6.10;89.60;;;;;;5072504;28;20450;-83
2020/12/18 05:47:10;;;;;;;10.40;2.70;;;6.00;89.80;;;;;;5089739;28;20461;-83
2020/12/18 05:49:38;;;;;;;6.32;2.15;;;6.10;89.80;;;;;;5106318;28;20389;-84
2020/12/18 05:52:05;;;;;;;8.85;2.65;;;6.10;89.60;;;;;;5090274;28;20644;-83
2020/12/18 05:54:36;;;;;;;8.00;2.38;;;6.10;89.60;;;;;;5090495;28;20370;-84
2020/12/18 05:57:15;;;;;;;5.80;2.00;;;6.30;89.10;;;;;;5089929;28;20854;-83
2020/12/18 05:59:45;;;;;;;11.90;2.47;;;6.30;88.90;;;;;;5094463;28;20439;-81
2020/12/18 06:02:13;;;;;;;4.82;2.05;;;6.20;89.40;;;;;;5094331;28;20707;-82
2020/12/18 06:04:39;;;;;;;5.72;1.90;;;6.30;89.10;;;;;;5094339;28;20378;-80
2020/12/18 06:07:06;;;;;;;6.15;2.20;;;6.30;89.10;;;;;;5094127;28;20381;-82
2020/12/18 06:09:34;;;;;;;6.30;2.13;;;6.30;89.00;;;;;;5093839;28;20434;-81
2020/12/18 06:12:05;;;;;;;11.02;2.90;;;6.30;89.20;;;;;;5110118;28;20382;-81
2020/12/18 06:14:31;;;;;;;6.70;2.50;;;6.20;89.20;;;;;;5094174;28;20457;-81
2020/12/18 06:17:06;;;;;;;9.63;2.15;;;6.40;88.80;;;;;;5094136;28;20431;-81
2020/12/18 06:19:37;;;;;;;6.80;2.00;;;6.30;89.00;;;;;;5094150;28;20838;-79
2020/12/18 06:22:05;;;;;;;7.30;2.45;;;6.40;88.80;;;;;;5094576;28;20408;-79
2020/12/18 06:24:31;;;;;;;13.48;2.88;;;6.30;88.70;;;;;;5109320;28;20378;-78
2020/12/18 06:26:57;;;;;;;4.30;2.27;;;6.20;89.00;;;;;;5093663;28;20389;-79
2020/12/18 06:29:26;;;;;;;12.18;2.75;;;6.20;89.10;;;;;;5092419;28;20374;-79
2020/12/18 06:31:52;;;;;;;9.75;2.15;;;6.30;89.00;;;;;;5109618;28;20552;-79
2020/12/18 06:34:26;;;;;;;9.05;2.20;;;6.20;89.30;;;;;;5094086;28;20381;-79
2020/12/18 06:36:54;;;;;;;5.90;2.00;;;6.30;88.80;;;;;;5108834;28;20382;-79
2020/12/18 06:39:26;;;;;;;8.48;3.17;;;6.30;88.80;;;;;;5109413;28;20385;-79
2020/12/18 06:42:13;;;;;;;8.00;2.90;;;6.30;89.00;;;;;;5109057;28;20398;-80
2020/12/18 06:44:41;;;;;;;7.43;2.50;;;6.30;89.00;;;;;;5093841;28;20435;-79
2020/12/18 06:47:26;;;;;;;6.72;2.17;;;6.30;89.00;;;;;;5093090;28;20381;-80
2020/12/18 06:49:55;;;;;;;8.02;2.22;;;6.30;89.10;;;;;;5109245;28;20954;-80
2020/12/18 06:52:50;;;;;;;9.13;2.22;;;6.30;88.90;;;;;;5093738;28;20385;-80
2020/12/18 06:55:25;;;;;;;10.38;2.50;;;6.30;89.00;;;;;;5093280;28;20382;-80
2020/12/18 06:58:05;;;;;;;13.63;5.28;;;6.30;89.00;;;;;;5091717;28;20426;-80
2020/12/18 07:00:34;;;;;;;12.00;3.28;;;6.40;88.60;;;;;;5093285;28;20378;-79
2020/12/18 07:03:00;;;;;;;6.22;2.65;;;6.30;88.90;;;;;;5073274;28;20402;-79
2020/12/18 07:05:32;;;;;;;5.70;2.43;;;6.30;89.00;;;;;;5092405;28;20898;-80
2020/12/18 07:08:00;;;;;;;11.73;3.08;;;6.30;89.00;;;;;;5107867;28;20413;-81
2020/12/18 07:10:46;;;;;;;6.45;2.28;;;6.30;89.10;;;;;;5092088;28;20378;-80
2020/12/18 07:13:16;;;;;;;6.90;2.20;;;6.30;88.80;;;;;;5092487;28;20382;-81
2020/12/18 07:15:45;;;;;;;6.23;2.83;;;6.30;88.70;;;;;;5108392;28;20446;-80
2020/12/18 07:18:25;;;;;;;7.65;2.30;;;6.20;89.00;;;;;;5107472;28;20435;-81
2020/12/18 07:21:14;;;;;;;12.98;3.08;;;6.40;88.60;;;;;;5074132;28;20394;-80
2020/12/18 07:23:43;;;;;;;4.72;2.13;;;6.40;88.50;;;;;;5091720;28;20457;-80
2020/12/18 07:26:11;;;;;;;5.15;2.65;;;6.30;88.90;;;;;;5072902;28;20473;-80
2020/12/18 07:28:39;;;;;;;10.40;3.03;;;6.30;88.80;;;;;;5092576;28;20835;-80
2020/12/18 07:31:20;;;;;;;9.52;2.70;;;6.30;88.60;;;;;;5092618;28;20461;-79
2020/12/18 07:33:59;;;;;;;9.27;2.35;;;6.30;88.60;;;;;;5092938;28;20374;-80
2020/12/18 07:36:31;;;;;;;9.27;2.45;;;6.30;88.80;;;;;;5092897;28;20413;-79
2020/12/18 07:38:57;;;;;;;7.40;2.10;;;6.30;88.90;;;;;;5092162;28;20765;-79
2020/12/18 07:41:26;;;;;;;9.18;2.22;;;6.40;88.60;;;;;;5092404;28;20414;-81
2020/12/18 07:43:52;;;;;;;7.45;2.30;;;6.40;88.20;;;;;;5074419;28;20390;-78
2020/12/18 07:46:19;;;;;;;7.20;2.37;;;6.40;88.60;;;;;;5092609;28;20366;-81
2020/12/18 07:48:46;;;;;;;11.13;2.42;;;6.40;88.40;;;;;;5092185;28;20366;-81
2020/12/18 07:51:18;;;;;;;6.13;2.35;;;6.50;88.10;;;;;;5092566;28;20382;-81
2020/12/18 07:53:44;;;;;;;7.75;2.17;;;6.50;88.20;;;;;;5073937;28;20440;-81
2020/12/18 07:56:11;;;;;;;10.00;2.55;;;6.40;88.40;;;;;;5074615;28;20477;-78
2020/12/18 07:58:53;;;;;;;9.18;2.20;;;6.50;88.10;;;;;;5091755;28;20423;-81
2020/12/18 08:01:24;;;;;;;7.45;2.08;;;6.60;88.00;;;;;;5092227;28;20410;-80
2020/12/18 08:03:59;;;;;;;10.75;2.25;;;6.50;88.20;;;;;;5092169;28;20455;-81
2020/12/18 08:06:29;;;;;;;8.53;2.27;;;6.50;88.40;;;;;;5091802;28;20406;-80
2020/12/18 08:09:09;;;;;;;7.18;2.15;;;6.50;88.30;;;;;;5091985;28;20378;-81
2020/12/18 08:11:42;;;;;;;10.75;2.00;;;6.60;88.10;;;;;;5091821;28;20382;-80
2020/12/18 08:14:08;;;;;;;7.75;2.33;;;6.70;88.00;;;;;;5092088;28;20432;-82
2020/12/18 08:16:34;;;;;;;7.82;2.03;;;6.70;87.90;;;;;;5073310;28;20704;-80
2020/12/18 08:19:01;;;;;;;7.75;2.17;;;6.80;87.60;;;;;;5073785;28;20436;-80
2020/12/18 08:21:39;;;;;;;8.20;2.23;;;6.70;88.00;;;;;;5090782;28;20490;-81
2020/12/18 08:24:37;;;;;;;8.50;2.70;;;6.90;87.50;;;;;;5073735;28;20418;-81
2020/12/18 08:27:09;;;;;;;10.60;2.70;;;6.90;87.40;;;;;;5089372;28;20386;-80
2020/12/18 08:29:37;;;;;;;6.63;2.03;;;6.90;87.20;;;;;;5090780;28;20443;-81
2020/12/18 08:32:05;;;;;;;5.13;1.77;;;6.90;87.30;;;;;;5073522;28;20389;-81
2020/12/18 08:34:32;;;;;;;8.02;2.20;;;7.00;87.20;;;;;;5091485;28;20379;-81
2020/12/18 08:37:00;;;;;;;8.88;2.22;;;7.00;87.00;;;;;;5091095;28;20801;-80
2020/12/18 08:39:30;;;;;;;8.25;2.40;;;7.00;87.20;;;;;;5073044;28;20413;-81
2020/12/18 08:41:56;;;;;;;4.93;2.20;;;7.10;86.80;;;;;;5091574;28;20421;-80
2020/12/18 08:44:25;;;;;;;7.95;2.00;;;7.20;86.80;;;;;;5090926;28;20870;-80
2020/12/18 08:46:51;;;;;;;5.25;1.98;;;7.20;86.60;;;;;;5090769;28;20382;-80
2020/12/18 08:49:16;;;;;;;5.93;2.10;;;7.10;86.90;;;;;;5091033;28;20422;-80
2020/12/18 08:51:42;;;;;;;7.13;2.30;;;7.20;86.70;;;;;;5091261;28;20389;-80
2020/12/18 08:54:27;;;;;;;5.47;2.05;;;7.20;86.60;;;;;;5091339;28;20418;-80
2020/12/18 08:57:26;;;;;;;4.20;1.80;;;7.30;86.60;;;;;;5090630;28;20382;-80
2020/12/18 09:00:00;;;;;;;10.23;1.98;;;7.30;86.70;;;;;;5073017;28;20390;-80
2020/12/18 09:02:30;;;;;;;7.22;2.05;;;7.40;86.10;;;;;;5090928;28;20796;-80
2020/12/18 09:05:14;;;;;;;9.63;1.88;;;7.30;86.40;;;;;;5090535;28;20465;-81
2020/12/18 09:07:59;;;;;;;6.55;2.10;;;7.50;85.70;;;;;;5070862;28;20801;-81
2020/12/18 09:10:27;;;;;;;6.35;2.00;;;7.40;86.00;;;;;;5090446;28;20459;-80
2020/12/18 09:12:53;;;;;;;5.90;1.85;;;7.40;86.00;;;;;;5090748;28;20409;-80
2020/12/18 09:15:29;;;;;;;7.88;2.35;;;7.50;85.70;;;;;;5090351;28;20398;-80
2020/12/18 09:18:09;;;;;;;7.15;1.75;;;7.50;85.50;;;;;;5090032;28;20389;-81
2020/12/18 09:20:43;;;;;;;5.75;1.60;;;7.60;85.40;;;;;;5090515;28;20707;-80
2020/12/18 09:23:12;;;;;;;8.85;2.10;;;7.60;85.40;;;;;;5090333;28;20382;-80
2020/12/18 09:25:50;;;;;;;5.43;1.88;;;7.70;84.90;;;;;;5090948;28;20385;-80
2020/12/18 09:28:19;;;;;;;7.15;1.67;;;7.70;85.20;;;;;;5090194;28;20378;-80
2020/12/18 09:30:49;;;;;;;8.02;2.50;;;7.70;85.40;;;;;;5072702;28;20858;-80
2020/12/18 09:33:25;;;;;;;6.82;2.10;;;7.80;84.90;;;;;;5090118;28;20381;-81
2020/12/18 09:36:06;;;;;;;6.68;1.88;;;7.90;84.80;;;;;;5090976;28;20447;-80
2020/12/18 09:38:46;;;;;;;5.00;1.70;;;8.00;84.00;;;;;;5089809;28;20734;-81
2020/12/18 09:41:22;;;;;;;8.23;2.33;;;8.10;84.00;;;;;;5089164;28;20421;-79
2020/12/18 09:43:50;;;;;;;8.23;2.45;;;8.20;83.60;;;;;;5089629;28;20445;-82
2020/12/18 09:46:23;;;;;;;13.13;2.63;;;8.20;83.60;;;;;;5089976;28;20461;-81
2020/12/18 09:48:49;;;;;;;11.93;2.50;;;8.30;83.10;;;;;;5088938;28;20390;-81
2020/12/18 09:51:15;;;;;;;10.88;2.00;;;8.30;83.70;;;;;;5090413;28;20769;-79
2020/12/18 09:53:41;;;;;;;5.85;1.95;;;8.30;83.20;;;;;;5091030;28;20370;-82
2020/12/18 09:56:11;;;;;;;4.43;1.70;;;8.40;82.10;;;;;;5090808;28;20367;-81
2020/12/18 09:58:37;;;;;;;5.90;1.80;;;8.40;82.20;;;;;;5090353;28;20374;-81
2020/12/18 10:01:05;;;;;;;6.70;1.98;;;8.30;82.90;;;;;;5072256;28;20420;-82
2020/12/18 10:03:30;;;;;;;5.47;1.83;;;8.40;82.80;;;;;;5089977;28;20377;-82
2020/12/18 10:05:57;;;;;;;7.20;2.15;;;8.40;82.70;;;;;;5091052;28;20381;-82
2020/12/18 10:08:23;;;;;;;7.38;2.22;;;8.40;82.40;;;;;;5089655;28;20382;-82
2020/12/18 10:10:48;;;;;;;6.70;1.38;;;8.40;82.50;;;;;;5090273;28;20405;-81
2020/12/18 10:13:14;;;;;;;2.20;1.20;;;8.60;81.40;;;;;;5089997;28;20378;-82
2020/12/18 10:15:40;;;;;;;5.03;1.33;;;8.60;81.20;;;;;;5090405;28;20853;-82
2020/12/18 10:18:06;;;;;;;8.67;1.70;;;8.60;81.60;;;;;;5089701;28;20377;-82
2020/12/18 10:20:33;;;;;;;6.55;2.15;;;8.60;81.80;;;;;;5090717;28;20374;-80
2020/12/18 10:22:59;;;;;;;5.70;2.00;;;8.70;81.50;;;;;;5105397;28;20402;-83
2020/12/18 10:25:25;;;;;;;4.55;1.45;;;8.90;80.70;;;;;;5089885;28;20374;-83
2020/12/18 10:27:51;;;;;;;5.85;1.45;;;8.80;81.10;;;;;;5089413;28;20382;-82
2020/12/18 10:30:16;;;;;;;5.38;1.65;;;8.80;81.00;;;;;;5090032;28;20381;-82
2020/12/18 10:32:42;;;;;;;6.97;1.50;;;8.70;81.30;;;;;;5090099;28;20381;-81
2020/12/18 10:35:09;;;;;;;3.55;1.60;;;9.00;79.70;;;;;;5089853;28;20722;-81
2020/12/18 10:37:34;;;;;;;7.72;1.60;;;9.00;80.00;;;;;;5089804;28;20382;-81
2020/12/18 10:40:00;;;;;;;3.40;1.40;;;9.30;79.50;;;;;;5089561;28;20374;-81
2020/12/18 10:42:26;;;;;;;5.60;1.65;;;9.30;79.20;;;;;;5090127;28;20405;-80
2020/12/18 10:44:52;;;;;;;5.72;1.60;;;9.40;79.40;;;;;;5091438;28;20842;-76
2020/12/18 10:47:17;;;;;;;8.10;1.50;;;9.40;79.10;;;;;;5075165;28;20873;-82
2020/12/18 10:49:43;;;;;;;6.20;1.60;;;9.40;79.30;;;;;;5075144;28;20392;-82
2020/12/18 10:52:10;;;;;;;4.07;1.60;;;9.40;78.60;;;;;;5094006;28;20374;-81
2020/12/18 10:54:35;;;;;;;6.32;1.50;;;9.40;79.10;;;;;;5092660;28;20382;-82
2020/12/18 10:57:01;;;;;;;5.07;1.80;;;9.50;79.00;;;;;;5093005;28;20436;-81
2020/12/18 10:59:29;;;;;;;6.38;1.88;;;9.60;77.50;;;;;;5093267;28;20404;-80
2020/12/18 11:01:57;;;;;;;7.40;1.75;;;9.80;77.70;;;;;;5108903;28;20738;-83
2020/12/18 11:04:25;;;;;;;6.05;1.52;;;9.80;76.80;;;;;;5093480;28;20374;-80
2020/12/18 11:06:51;;;;;;;5.23;1.43;;;9.70;77.20;;;;;;5092484;28;20452;-81
2020/12/18 11:09:17;;;;;;;8.20;1.63;;;9.80;76.90;;;;;;5074976;28;20727;-82
2020/12/18 11:11:50;;;;;;;4.43;1.40;;;9.90;76.70;;;;;;5093060;28;20370;-81
2020/12/18 11:14:18;;;;;;;4.93;1.35;;;9.90;77.10;;;;;;5093469;28;20374;-81
2020/12/18 11:16:44;;;;;;;6.13;1.80;;;10.00;75.30;;;;;;5108282;28;20428;-81
2020/12/18 11:19:09;;;;;;;6.65;1.52;;;9.90;75.40;;;;;;5108881;28;20405;-81
2020/12/18 11:21:37;;;;;;;5.32;1.70;;;9.80;76.40;;;;;;5091950;28;20885;-82
2020/12/18 11:24:03;;;;;;;4.47;1.20;;;9.90;76.40;;;;;;5091392;28;20413;-82
2020/12/18 11:26:28;;;;;;;5.47;1.38;;;9.80;77.10;;;;;;5090874;28;20842;-80
2020/12/18 11:28:55;;;;;;;5.00;1.50;;;9.90;76.30;;;;;;5106274;28;20374;-81
2020/12/18 11:31:21;;;;;;;2.72;1.27;;;9.90;75.90;;;;;;5090823;28;20777;-81
2020/12/18 11:33:46;;;;;;;6.97;1.40;;;9.90;76.10;;;;;;5090751;28;20450;-81
2020/12/18 11:36:13;;;;;;;3.07;1.40;;;10.00;75.30;;;;;;5072958;28;20382;-81
2020/12/18 11:38:38;;;;;;;6.57;1.48;;;9.90;76.10;;;;;;5073689;28;20388;-81
2020/12/18 11:41:04;;;;;;;5.50;1.45;;;10.00;75.40;;;;;;5092766;28;20410;-80
2020/12/18 11:43:30;;;;;;;3.55;1.20;;;10.00;75.40;;;;;;5092642;28;20427;-82
2020/12/18 11:45:55;;;;;;;6.50;1.40;;;9.90;76.10;;;;;;5092786;28;20612;-81
2020/12/18 11:48:21;;;;;;;5.25;1.85;;;9.80;76.80;;;;;;5091924;28;20403;-81
2020/12/18 11:50:47;;;;;;;4.07;1.47;;;9.90;76.20;;;;;;5092789;28;20374;-82
2020/12/18 11:53:12;;;;;;;4.22;1.20;;;10.00;74.90;;;;;;5092347;28;20396;-81
2020/12/18 11:55:38;;;;;;;5.82;1.20;;;10.00;75.70;;;;;;5092107;28;20520;-80
2020/12/18 11:58:04;;;;;;;3.28;1.35;;;10.00;75.30;;;;;;5073996;28;20934;-81
2020/12/18 12:00:31;;;;;;;9.27;1.77;;;10.10;75.40;;;;;;5091139;28;20710;-82
2020/12/18 12:02:58;;;;;;;5.43;1.10;;;10.00;75.20;;;;;;5072847;28;20648;-81
2020/12/18 12:05:24;;;;;;;6.13;1.15;;;10.00;75.40;;;;;;5073259;28;20393;-81
2020/12/18 12:07:50;;;;;;;12.98;2.55;;;10.00;75.60;;;;;;5091834;28;20454;-81
2020/12/18 12:10:18;;;;;;;6.00;1.65;;;10.10;74.50;;;;;;5073891;28;20421;-81
2020/12/18 12:12:44;;;;;;;6.50;1.20;;;9.90;75.60;;;;;;5091975;28;20378;-81
2020/12/18 12:15:10;;;;;;;3.92;1.80;;;10.10;74.60;;;;;;5073939;28;20476;-82
2020/12/18 12:17:36;;;;;;;5.67;1.23;;;10.10;74.50;;;;;;5091522;28;20727;-82
2020/12/18 12:20:02;;;;;;;5.63;1.20;;;10.10;74.70;;;;;;5092071;28;20512;-82
2020/12/18 12:22:28;;;;;;;5.80;1.20;;;10.00;75.10;;;;;;5073975;28;20866;-82
2020/12/18 12:24:54;;;;;;;6.13;1.40;;;10.00;75.30;;;;;;5091800;28;20388;-81
2020/12/18 12:27:24;;;;;;;5.13;1.38;;;10.00;75.70;;;;;;5091375;28;20370;-82
2020/12/18 12:29:50;;;;;;;3.13;1.20;;;10.00;75.40;;;;;;5091977;28;20507;-81
2020/12/18 12:32:16;;;;;;;3.67;1.15;;;9.90;76.10;;;;;;5091119;28;20451;-81
2020/12/18 12:34:41;;;;;;;3.90;1.40;;;9.90;75.90;;;;;;5091949;28;20378;-82
2020/12/18 12:37:07;;;;;;;4.45;1.40;;;9.90;75.40;;;;;;5091037;28;20381;-82
2020/12/18 12:39:33;;;;;;;5.90;1.20;;;9.80;76.40;;;;;;5091854;28;20404;-82
2020/12/18 12:42:01;;;;;;;5.60;1.30;;;9.90;76.20;;;;;;5090916;28;20747;-83
2020/12/18 12:44:28;;;;;;;3.45;1.52;;;10.00;76.20;;;;;;5091674;28;20382;-81
2020/12/18 12:46:53;;;;;;;4.63;1.33;;;9.80;77.10;;;;;;5072697;28;20381;-82
2020/12/18 12:49:19;;;;;;;3.13;1.40;;;9.90;75.90;;;;;;5091473;28;20378;-82
2020/12/18 12:51:45;;;;;;;4.50;1.37;;;9.90;75.50;;;;;;5072731;28;20386;-81
2020/12/18 12:54:10;;;;;;;2.50;1.17;;;9.90;75.80;;;;;;5106856;28;20424;-82
2020/12/18 12:56:36;;;;;;;4.93;1.67;;;9.90;75.90;;;;;;5089652;28;20389;-81
2020/12/18 12:59:01;;;;;;;5.50;1.23;;;10.10;75.10;;;;;;5090814;28;20456;-83